Time;durP1;ratioP1;P1;durP2;ratioP2;P2;SDS_P1;SDS_P2;PMS_P1;PMS_P2;Temp;Humidity;BMP_temperature;BMP_pressure;BME280_temperature;BME280_humidity;BME280_pressure;Samples;Min_cycle;Max_cycle;Signal;HPM_P1;HPM_P2
2022/05/27 00:01:16;;;;;;;3.72;0.70;;;;;;;23.16;41.25;101847.00;5034633;28;20509;-65
2022/05/27 00:03:41;;;;;;;2.92;1.10;;;;;;;23.13;40.77;101841.91;5037736;28;20045;-66
2022/05/27 00:06:07;;;;;;;3.72;0.82;;;;;;;23.09;41.30;101851.50;5037586;28;20031;-65
2022/05/27 00:08:33;;;;;;;3.13;0.98;;;;;;;23.08;40.45;101845.22;5038744;28;20031;-65
2022/05/27 00:10:59;;;;;;;2.08;0.60;;;;;;;23.07;40.94;101842.66;5039408;28;20028;-65
2022/05/27 00:13:26;;;;;;;2.72;0.60;;;;;;;23.04;41.29;101835.66;5040383;28;20029;-65
2022/05/27 00:15:51;;;;;;;2.17;0.73;;;;;;;23.06;40.89;101840.97;5036399;28;20049;-65
2022/05/27 00:18:16;;;;;;;5.07;0.90;;;;;;;23.10;41.48;101842.28;5040664;28;20083;-65
2022/05/27 00:20:42;;;;;;;2.92;1.08;;;;;;;23.11;40.53;101838.53;5036895;28;20032;-65
2022/05/27 00:23:07;;;;;;;2.97;0.88;;;;;;;23.12;40.52;101834.72;5040998;28;20104;-65
2022/05/27 00:25:33;;;;;;;5.68;0.93;;;;;;;23.12;41.48;101840.19;5042897;28;20028;-65
2022/05/27 00:27:59;;;;;;;4.63;0.90;;;;;;;23.09;41.22;101841.41;5039153;28;20105;-64
2022/05/27 00:30:25;;;;;;;0.65;0.63;;;;;;;23.08;41.20;101838.88;5037707;28;20742;-65
2022/05/27 00:32:51;;;;;;;4.57;0.88;;;;;;;23.07;41.49;101832.56;5040832;28;20025;-65
2022/05/27 00:35:17;;;;;;;4.03;0.82;;;;;;;23.09;40.63;101829.63;5038549;28;20029;-65
2022/05/27 00:37:42;;;;;;;0.70;0.70;;;;;;;23.11;41.34;101833.06;5039382;28;20094;-65
2022/05/27 00:40:09;;;;;;;2.95;0.70;;;;;;;23.11;41.67;101836.63;5040554;28;20033;-65
2022/05/27 00:42:39;;;;;;;2.85;0.90;;;;;;;23.06;41.76;101832.75;5036701;28;20430;-65
2022/05/27 00:45:05;;;;;;;4.00;0.80;;;;;;;23.04;41.03;101827.47;5037440;28;20490;-66
2022/05/27 00:47:33;;;;;;;1.90;0.90;;;;;;;23.06;40.81;101830.03;5038545;28;20029;-65
2022/05/27 00:50:04;;;;;;;1.95;0.57;;;;;;;23.02;41.79;101823.22;5038807;28;20025;-65
2022/05/27 00:52:31;;;;;;;3.03;0.55;;;;;;;22.98;41.02;101833.66;5043818;28;20052;-65
2022/05/27 00:54:56;;;;;;;1.05;0.60;;;;;;;22.95;41.32;101834.03;5039681;28;20103;-65
2022/05/27 00:57:25;;;;;;;4.45;0.55;;;;;;;22.96;41.24;101823.97;5038744;28;20108;-65
2022/05/27 01:00:07;;;;;;;1.95;0.70;;;;;;;22.96;40.92;101823.97;5035786;28;20017;-65
2022/05/27 01:02:34;;;;;;;7.13;0.55;;;;;;;22.96;41.30;101824.81;5043599;28;20473;-64
2022/05/27 01:05:01;;;;;;;5.45;0.80;;;;;;;22.96;40.85;101818.50;5045880;28;20111;-64
2022/05/27 01:07:26;;;;;;;3.92;0.70;;;;;;;22.94;41.25;101809.66;5046495;28;20036;-66
2022/05/27 01:09:52;;;;;;;4.97;0.70;;;;;;;22.96;41.85;101808.41;5051910;28;20021;-66
2022/05/27 01:12:30;;;;;;;3.38;0.88;;;;;;;22.95;41.36;101805.84;5044748;28;20028;-65
2022/05/27 01:15:13;;;;;;;2.85;1.23;;;;;;;22.95;40.99;101803.13;5041938;28;20021;-65
2022/05/27 01:17:38;;;;;;;3.53;0.82;;;;;;;22.93;41.11;101797.84;5045422;28;20028;-65
2022/05/27 01:20:19;;;;;;;5.57;0.75;;;;;;;22.88;42.03;101804.91;5043905;28;20025;-65
2022/05/27 01:23:13;;;;;;;1.27;0.50;;;;;;;22.85;41.26;101802.56;5046086;28;22091;-66
2022/05/27 01:25:46;;;;;;;1.35;0.80;;;;;;;22.84;41.12;101804.44;5043875;28;20033;-64
2022/05/27 01:28:36;;;;;;;0.70;0.50;;;;;;;22.86;42.10;101807.00;5044504;28;20486;-65
2022/05/27 01:31:15;;;;;;;2.53;0.90;;;;;;;22.87;41.95;101808.66;5043827;28;20021;-65
2022/05/27 01:33:44;;;;;;;5.38;1.00;;;;;;;22.87;41.53;101803.22;5045226;28;20063;-65
2022/05/27 01:36:23;;;;;;;2.40;0.57;;;;;;;22.87;41.42;101808.66;5043117;28;20117;-65
2022/05/27 01:39:17;;;;;;;2.03;0.80;;;;;;;22.86;41.23;101796.06;5049167;28;20032;-65
2022/05/27 01:41:51;;;;;;;1.15;0.85;;;;;;;22.87;41.67;101797.75;5046451;28;20028;-65
2022/05/27 01:44:46;;;;;;;2.95;0.90;;;;;;;22.85;41.95;101788.88;5042519;28;20032;-65
2022/05/27 01:47:19;;;;;;;3.03;1.20;;;;;;;22.80;41.51;101797.66;5043215;28;20395;-64
2022/05/27 01:49:48;;;;;;;2.17;0.98;;;;;;;22.78;41.53;101793.41;5043504;28;20036;-65
2022/05/27 01:52:20;;;;;;;3.15;1.30;;;;;;;22.79;41.82;101797.81;5030359;28;20394;-65
2022/05/27 01:55:11;;;;;;;3.35;1.08;;;;;;;22.76;41.10;101795.44;5042042;28;20204;-65
2022/05/27 01:57:40;;;;;;;2.85;1.35;;;;;;;22.75;41.51;101804.72;5041528;28;20021;-65
2022/05/27 02:00:12;;;;;;;3.08;1.13;;;;;;;22.71;42.32;101808.81;5046679;28;20096;-65
2022/05/27 02:02:46;;;;;;;2.60;1.10;;;;;;;22.69;41.52;101799.97;5045195;28;20036;-65
2022/05/27 02:05:16;;;;;;;2.60;1.42;;;;;;;22.66;41.71;101794.88;5025632;28;20041;-66
2022/05/27 02:07:52;;;;;;;3.50;1.30;;;;;;;22.58;42.78;101793.88;5041325;28;20052;-65
2022/05/27 02:10:25;;;;;;;1.00;0.90;;;;;;;22.56;42.07;101801.41;5042543;28;20107;-65
2022/05/27 02:12:55;;;;;;;4.20;1.10;;;;;;;22.51;43.28;101787.47;5041919;28;20501;-66
2022/05/27 02:15:32;;;;;;;6.28;1.08;;;;;;;22.48;42.86;101795.16;5039225;28;20460;-65
2022/05/27 02:18:05;;;;;;;3.85;0.88;;;;;;;22.47;42.52;101790.75;5044981;28;20095;-65
2022/05/27 02:20:34;;;;;;;4.25;1.23;;;;;;;22.46;43.51;101795.34;5040415;28;20052;-66
2022/05/27 02:23:09;;;;;;;2.55;1.00;;;;;;;22.43;42.83;101789.41;5025664;28;20024;-65
2022/05/27 02:25:41;;;;;;;2.72;1.20;;;;;;;22.40;43.27;101801.53;5048246;28;20021;-66
2022/05/27 02:28:12;;;;;;;6.43;1.10;;;;;;;22.35;43.64;101797.66;5045809;28;20039;-65
2022/05/27 02:30:40;;;;;;;2.33;1.38;;;;;;;22.33;43.07;101797.84;5039102;28;20131;-65
2022/05/27 02:36:06;;;;;;;2.45;0.90;;;;;;;22.25;43.67;101792.44;5038957;28;20040;-65
2022/05/27 02:38:32;;;;;;;4.68;1.73;;;;;;;22.20;43.77;101788.53;5044819;28;20049;-65
2022/05/27 02:41:20;;;;;;;2.03;1.10;;;;;;;22.19;44.13;101790.44;5040589;28;20025;-65
2022/05/27 02:44:08;;;;;;;3.97;1.35;;;;;;;22.19;44.15;101787.72;5039728;28;20025;-65
2022/05/27 02:46:33;;;;;;;1.95;0.90;;;;;;;22.16;44.51;101793.53;5041058;28;20485;-65
2022/05/27 02:49:27;;;;;;;2.67;0.90;;;;;;;22.13;43.97;101793.91;5045879;28;20056;-65
2022/05/27 02:52:00;;;;;;;2.28;0.90;;;;;;;22.08;44.07;101790.00;5039003;28;20021;-65
2022/05/27 02:54:34;;;;;;;12.38;1.63;;;;;;;22.05;44.09;101785.75;5062705;28;20034;-65
2022/05/27 02:57:05;;;;;;;5.45;1.48;;;;;;;22.04;44.28;101778.59;5036065;28;20095;-65
2022/05/27 02:59:31;;;;;;;3.50;1.40;;;;;;;22.01;44.59;101778.97;5040927;28;20028;-66
2022/05/27 03:02:09;;;;;;;4.15;1.65;;;;;;;21.99;45.42;101786.47;5039880;28;20475;-66
2022/05/27 03:04:35;;;;;;;4.47;1.30;;;;;;;21.98;45.66;101785.63;5005495;28;1109678;-65
2022/05/27 03:07:31;;;;;;;2.08;1.48;;;;;;;21.97;44.68;101783.09;5041757;28;20033;-65
2022/05/27 03:10:20;;;;;;;2.10;1.23;;;;;;;21.96;44.66;101781.38;5044119;28;20478;-66
2022/05/27 03:12:58;;;;;;;3.65;1.08;;;;;;;21.93;45.35;101776.28;5042180;28;20029;-65
2022/05/27 03:15:29;;;;;;;1.48;0.93;;;;;;;21.86;45.08;101775.28;5037716;28;20032;-66
2022/05/27 03:18:33;;;;;;;2.53;1.02;;;;;;;21.83;45.72;101776.47;5041350;28;20053;-65
2022/05/27 03:21:10;;;;;;;4.57;1.00;;;;;;;21.81;45.24;101777.69;5043906;28;20143;-65
2022/05/27 03:23:35;;;;;;;4.47;0.98;;;;;;;21.77;45.78;101770.91;5044314;28;20018;-66
2022/05/27 03:26:30;;;;;;;4.28;1.55;;;;;;;21.74;46.04;101771.25;5043763;28;20035;-66
2022/05/27 03:29:26;;;;;;;2.13;1.02;;;;;;;21.74;46.41;101768.53;5035705;28;20436;-66
2022/05/27 03:31:59;;;;;;;2.33;1.30;;;;;;;21.71;45.94;101766.16;5064325;28;20025;-65
2022/05/27 03:34:29;;;;;;;5.40;1.73;;;;;;;21.75;45.70;101765.59;5036007;28;20116;-65
2022/05/27 03:36:57;;;;;;;2.78;1.27;;;;;;;21.78;46.65;101767.97;5064936;28;20532;-65
2022/05/27 03:39:26;;;;;;;3.17;1.55;;;;;;;21.78;45.77;101772.56;5044954;28;20037;-65
2022/05/27 03:41:59;;;;;;;4.38;1.70;;;;;;;21.81;46.49;101764.88;5039928;28;20059;-65
2022/05/27 03:44:27;;;;;;;2.10;1.05;;;;;;;21.84;46.65;101766.41;5042342;28;20024;-65
2022/05/27 03:46:53;;;;;;;5.70;1.85;;;;;;;21.83;46.48;101765.56;5037185;28;20077;-65
2022/05/27 03:49:18;;;;;;;4.75;1.42;;;;;;;21.80;46.23;101762.34;5040485;28;20155;-65
2022/05/27 03:51:56;;;;;;;4.97;1.40;;;;;;;21.76;46.55;101752.81;5043904;28;20480;-64
2022/05/27 03:54:22;;;;;;;5.32;1.83;;;;;;;21.78;46.06;101778.88;5040404;28;20128;-65
2022/05/27 03:56:49;;;;;;;6.57;1.33;;;;;;;21.75;45.92;101772.94;5043527;28;20784;-66
2022/05/27 03:59:15;;;;;;;4.25;1.35;;;;;;;21.73;46.44;101767.66;5038887;28;20021;-65
2022/05/27 04:01:44;;;;;;;2.25;1.30;;;;;;;21.74;46.85;101768.53;5050265;28;20024;-66
2022/05/27 04:04:12;;;;;;;3.90;1.33;;;;;;;21.75;46.17;101768.34;5063903;28;20049;-65
2022/05/27 04:06:37;;;;;;;5.63;1.00;;;;;;;21.74;46.83;101755.75;5045824;28;20021;-66
2022/05/27 04:09:03;;;;;;;2.67;1.60;;;;;;;21.72;47.26;101767.88;5040422;28;20024;-65
2022/05/27 04:11:30;;;;;;;4.80;1.38;;;;;;;21.74;46.66;101765.78;5036910;28;20021;-65
2022/05/27 04:13:56;;;;;;;5.70;1.38;;;;;;;21.77;46.86;101776.34;5045600;28;20040;-65
2022/05/27 04:16:22;;;;;;;2.83;1.48;;;;;;;21.79;46.28;101775.13;5039879;28;20029;-65
2022/05/27 04:18:47;;;;;;;8.05;1.95;;;;;;;21.80;47.22;101765.91;5027333;28;20035;-65
2022/05/27 04:21:12;;;;;;;3.03;1.42;;;;;;;21.79;46.70;101769.69;5043363;28;20533;-65
2022/05/27 04:23:38;;;;;;;4.68;2.08;;;;;;;21.79;47.44;101768.84;5036009;28;20060;-65
2022/05/27 04:26:04;;;;;;;7.53;2.30;;;;;;;21.79;47.06;101768.84;5044738;28;20047;-65
2022/05/27 04:28:30;;;;;;;4.80;1.90;;;;;;;21.76;47.11;101774.63;5039124;28;20028;-65
2022/05/27 04:30:55;;;;;;;3.47;1.88;;;;;;;21.72;47.36;101771.41;5039691;28;20047;-65
2022/05/27 04:33:21;;;;;;;5.20;2.13;;;;;;;21.71;47.13;101763.44;5040586;28;20029;-65
2022/05/27 04:35:46;;;;;;;6.50;3.35;;;;;;;21.70;46.96;101758.97;5042247;28;20108;-65
2022/05/27 04:38:12;;;;;;;5.00;2.20;;;;;;;21.72;47.62;101771.41;5039617;28;20076;-66
2022/05/27 04:40:38;;;;;;;4.70;2.05;;;;;;;21.71;47.40;101764.28;5039682;28;20078;-66
2022/05/27 04:43:03;;;;;;;5.72;3.03;;;;;;;21.69;47.63;101762.75;5040763;28;20021;-65
2022/05/27 04:45:29;;;;;;;7.68;2.58;;;;;;;21.67;47.54;101762.06;5044569;28;20114;-65
2022/05/27 04:47:55;;;;;;;6.07;2.20;;;;;;;21.68;48.04;101764.63;5043616;28;20025;-67
2022/05/27 04:50:20;;;;;;;10.52;2.17;;;;;;;21.70;47.17;101767.16;5038675;28;20017;-65
2022/05/27 04:52:46;;;;;;;8.40;2.30;;;;;;;21.70;47.65;101762.56;5037065;28;20499;-65
2022/05/27 04:55:14;;;;;;;10.25;2.72;;;;;;;21.72;48.21;101770.59;5041899;28;20029;-65
2022/05/27 04:57:46;;;;;;;5.80;2.47;;;;;;;21.71;47.92;101772.47;5037030;28;20100;-66
2022/05/27 05:00:12;;;;;;;4.40;2.38;;;;;;;21.71;47.72;101772.47;5038918;28;20087;-66
2022/05/27 05:02:37;;;;;;;7.22;2.38;;;;;;;21.69;48.48;101774.50;5039456;28;20103;-66
2022/05/27 05:05:03;;;;;;;4.45;2.03;;;;;;;21.70;48.42;101770.75;5036002;28;20073;-65
2022/05/27 05:07:29;;;;;;;4.93;2.10;;;;;;;21.73;48.31;101764.94;5033563;28;20025;-65
2022/05/27 05:09:54;;;;;;;5.32;2.97;;;;;;;21.76;48.26;101769.19;5041809;28;20520;-65
2022/05/27 05:12:22;;;;;;;7.45;2.15;;;;;;;21.78;47.81;101772.56;5043178;28;20032;-65
2022/05/27 05:14:49;;;;;;;6.18;2.13;;;;;;;21.81;48.21;101777.69;5045012;28;20033;-66
2022/05/27 05:17:14;;;;;;;7.75;2.42;;;;;;;21.82;48.78;101773.94;5043072;28;20047;-65
2022/05/27 05:19:40;;;;;;;3.60;1.95;;;;;;;21.81;48.32;101772.22;5045399;28;20538;-66
2022/05/27 05:22:05;;;;;;;3.42;2.10;;;;;;;21.82;48.80;101774.78;5041071;28;20466;-65
2022/05/27 05:24:30;;;;;;;5.03;2.45;;;;;;;21.82;48.34;101774.78;5045821;28;20094;-65
2022/05/27 05:26:56;;;;;;;8.48;2.13;;;;;;;21.84;48.56;101777.31;5042744;28;20020;-65
2022/05/27 05:29:21;;;;;;;4.30;1.67;;;;;;;21.85;48.89;101788.06;5039277;28;20057;-65
2022/05/27 05:31:46;;;;;;;6.45;2.20;;;;;;;21.87;48.58;101785.19;5036480;28;20030;-66
2022/05/27 05:34:12;;;;;;;4.82;2.10;;;;;;;21.92;48.11;101780.03;5037439;28;20506;-65
2022/05/27 05:36:37;;;;;;;3.70;2.00;;;;;;;21.96;48.16;101790.44;5044694;28;20099;-65
2022/05/27 05:39:03;;;;;;;2.75;1.83;;;;;;;21.99;47.59;101789.22;5040640;28;20025;-66
2022/05/27 05:41:34;;;;;;;3.53;1.83;;;;;;;21.99;48.43;101789.22;5037552;28;20017;-64
2022/05/27 05:44:00;;;;;;;5.70;2.20;;;;;;;21.98;48.14;101791.09;5037779;28;20547;-65
2022/05/27 05:46:26;;;;;;;4.47;2.53;;;;;;;21.97;47.86;101791.28;5035737;28;20041;-65
2022/05/27 05:48:53;;;;;;;3.83;2.13;;;;;;;21.97;48.98;101800.28;5044713;28;20020;-65
2022/05/27 05:51:19;;;;;;;5.07;1.63;;;;;;;22.00;48.70;101799.94;5041923;28;20033;-65
2022/05/27 05:53:44;;;;;;;3.22;1.55;;;;;;;21.99;48.72;101802.84;5042794;28;20075;-66
2022/05/27 05:56:10;;;;;;;4.20;1.73;;;;;;;21.97;48.91;101802.19;5046389;28;20033;-66
2022/05/27 05:58:35;;;;;;;3.15;1.65;;;;;;;22.00;48.63;101799.06;5042716;28;20112;-65
2022/05/27 06:01:01;;;;;;;2.58;1.80;;;;;;;22.01;48.06;101801.66;5046776;28;20022;-65
2022/05/27 06:03:26;;;;;;;2.85;1.38;;;;;;;22.06;49.08;101798.38;5046811;28;20060;-65
2022/05/27 06:05:52;;;;;;;6.30;1.55;;;;;;;22.11;48.50;101801.41;5041394;28;20013;-66
2022/05/27 06:08:18;;;;;;;3.88;1.27;;;;;;;22.14;48.29;101800.22;5049392;28;20082;-65
2022/05/27 06:10:47;;;;;;;6.50;1.45;;;;;;;22.13;48.77;101810.28;5040816;28;20391;-65
2022/05/27 06:13:13;;;;;;;3.92;1.60;;;;;;;22.16;49.01;101814.53;5040027;28;20032;-65
2022/05/27 06:15:38;;;;;;;3.40;1.30;;;;;;;22.19;48.32;101815.00;5042463;28;20463;-65
2022/05/27 06:18:05;;;;;;;3.80;1.48;;;;;;;22.26;48.66;101813.25;5045333;28;20025;-66
2022/05/27 06:20:32;;;;;;;3.33;1.48;;;;;;;22.30;48.15;101821.94;5049287;28;20156;-65
2022/05/27 06:22:58;;;;;;;4.05;1.42;;;;;;;22.35;48.03;101816.78;5044424;28;20569;-65
2022/05/27 06:25:23;;;;;;;1.45;1.25;;;;;;;22.43;48.88;101819.44;5025743;28;20088;-65
2022/05/27 06:27:49;;;;;;;1.27;1.02;;;;;;;22.40;48.89;101820.66;5041125;28;20110;-66
2022/05/27 06:35:43;;;;;;;0.95;0.93;;;;;;;22.59;48.70;101814.69;5043344;28;20502;-66
2022/05/27 06:38:09;;;;;;;1.52;0.90;;;;;;;22.72;47.98;101826.94;5045392;28;20028;-66
2022/05/27 06:40:34;;;;;;;2.85;0.95;;;;;;;22.90;47.82;101811.88;5045323;28;20032;-66
2022/05/27 06:42:59;;;;;;;1.45;1.35;;;;;;;23.02;48.73;101828.69;5041603;28;20021;-65
2022/05/27 06:45:25;;;;;;;4.20;1.20;;;;;;;23.10;48.27;101814.94;5039919;28;20026;-65
2022/05/27 06:47:51;;;;;;;3.97;1.35;;;;;;;23.25;47.89;101818.53;5051696;28;20048;-66
2022/05/27 06:50:16;;;;;;;2.22;1.30;;;;;;;23.59;47.09;101827.03;5044602;28;20392;-66
2022/05/27 06:52:42;;;;;;;1.98;0.90;;;;;;;23.76;48.00;101823.06;5036549;28;20029;-67
2022/05/27 06:55:14;;;;;;;2.75;1.90;;;;;;;23.86;47.48;101824.66;5043242;28;20493;-66
2022/05/27 06:57:39;;;;;;;6.53;1.60;;;;;;;24.03;47.51;101826.16;5048741;28;20482;-65
2022/05/27 07:00:07;;;;;;;2.70;1.60;;;;;;;24.29;46.84;101824.56;5040656;28;20021;-66
2022/05/27 07:02:32;;;;;;;1.65;1.10;;;;;;;24.48;47.22;101833.19;5041385;28;20131;-66
2022/05/27 07:04:58;;;;;;;2.13;1.30;;;;;;;24.78;46.32;101824.63;5045262;28;20049;-66
2022/05/27 07:07:26;;;;;;;1.30;1.10;;;;;;;24.90;46.61;101827.72;5045201;28;20021;-65
2022/05/27 07:09:51;;;;;;;1.73;1.30;;;;;;;24.85;46.41;101820.06;5037312;28;20029;-65
2022/05/27 07:12:17;;;;;;;2.33;1.48;;;;;;;24.86;46.55;101837.38;5042180;28;20124;-65
2022/05/27 07:14:42;;;;;;;2.05;1.55;;;;;;;24.94;46.13;101828.16;5042981;28;20017;-66
2022/05/27 07:17:07;;;;;;;5.38;1.90;;;;;;;25.32;46.05;101832.25;5045190;28;20032;-66
2022/05/27 07:19:33;;;;;;;4.43;2.03;;;;;;;25.63;45.43;101829.91;5023669;28;20030;-68
2022/05/27 07:21:58;;;;;;;5.38;2.33;;;;;;;26.10;44.96;101839.22;5033577;28;20025;-66
2022/05/27 07:24:25;;;;;;;6.80;2.65;;;;;;;26.13;45.08;101836.88;5033347;28;20096;-65
2022/05/27 07:26:50;;;;;;;3.55;2.60;;;;;;;26.43;44.43;101837.44;5033305;28;20482;-66
2022/05/27 07:29:16;;;;;;;4.63;2.63;;;;;;;26.59;44.13;101837.03;5029125;28;20025;-66
2022/05/27 07:31:42;;;;;;;4.38;2.50;;;;;;;26.71;44.42;101829.84;5031723;28;20021;-64
2022/05/27 07:34:08;;;;;;;3.25;2.50;;;;;;;27.10;43.79;101829.03;5033374;28;20063;-66
2022/05/27 07:36:33;;;;;;;7.90;2.70;;;;;;;27.41;43.20;101834.72;5033043;28;20060;-66
2022/05/27 07:38:59;;;;;;;5.68;2.60;;;;;;;27.27;43.76;101834.94;5031193;28;20578;-66
2022/05/27 07:41:27;;;;;;;5.47;2.55;;;;;;;27.23;42.57;101834.50;5034369;28;20108;-65
2022/05/27 07:43:53;;;;;;;7.10;2.60;;;;;;;27.21;42.91;101842.13;5034107;28;20029;-65
2022/05/27 07:46:19;;;;;;;3.70;2.75;;;;;;;27.07;43.17;101846.81;5034198;28;20053;-65
2022/05/27 07:48:45;;;;;;;2.85;2.00;;;;;;;27.09;42.96;101844.69;5034278;28;20025;-66
2022/05/27 07:51:11;;;;;;;7.05;2.72;;;;;;;27.41;41.75;101842.13;5034115;28;20383;-66
2022/05/27 07:53:38;;;;;;;6.45;2.33;;;;;;;27.80;41.82;101847.53;5032876;28;20036;-67
2022/05/27 07:56:05;;;;;;;3.95;2.03;;;;;;;28.03;41.51;101850.63;5033943;28;20541;-67
2022/05/27 07:58:30;;;;;;;6.05;2.03;;;;;;;28.43;40.89;101844.91;5033887;28;20028;-67
2022/05/27 08:00:56;;;;;;;9.88;2.75;;;;;;;28.51;40.80;101839.97;5034173;28;20018;-66
2022/05/27 08:03:21;;;;;;;1.98;1.80;;;;;;;28.50;40.86;101854.84;5032974;28;20072;-65
2022/05/27 08:05:47;;;;;;;7.20;2.40;;;;;;;28.73;40.58;101848.75;5034248;28;20049;-65
2022/05/27 08:08:13;;;;;;;4.90;1.58;;;;;;;28.88;39.92;101854.78;5034108;28;20033;-66
2022/05/27 08:10:40;;;;;;;4.43;1.65;;;;;;;28.87;39.78;101847.56;5033841;28;20044;-66
2022/05/27 08:13:06;;;;;;;2.75;1.70;;;;;;;29.09;39.34;101851.63;5033655;28;20018;-66
2022/05/27 08:15:32;;;;;;;3.50;1.48;;;;;;;29.27;38.92;101840.66;5016066;28;20079;-66
2022/05/27 08:17:58;;;;;;;4.93;2.03;;;;;;;29.16;39.10;101838.63;5033817;28;20025;-65
2022/05/27 08:20:26;;;;;;;3.90;1.77;;;;;;;29.12;39.27;101845.66;5033750;28;20040;-65
2022/05/27 08:22:53;;;;;;;4.00;1.55;;;;;;;28.85;39.55;101841.44;5033893;28;20475;-66
2022/05/27 08:25:20;;;;;;;2.33;1.40;;;;;;;28.81;38.36;101840.22;5033652;28;20091;-64
2022/05/27 08:27:45;;;;;;;3.58;1.70;;;;;;;28.96;38.74;101835.19;5034258;28;20079;-66
2022/05/27 08:30:13;;;;;;;1.48;1.35;;;;;;;28.89;38.82;101831.66;5033850;28;20383;-66
2022/05/27 08:32:38;;;;;;;5.47;2.25;;;;;;;29.16;38.77;101844.16;5033769;28;20032;-66
2022/05/27 08:38:07;;;;;;;6.82;1.65;;;;;;;29.64;37.99;101835.19;5033757;28;20120;-66
2022/05/27 08:41:02;;;;;;;4.10;1.42;;;;;;;29.75;38.09;101839.94;5033904;28;20079;-65
2022/05/27 08:43:34;;;;;;;3.03;1.40;;;;;;;29.55;38.27;101834.63;5034033;28;20071;-66
2022/05/27 08:46:08;;;;;;;5.40;2.20;;;;;;;29.99;37.23;101839.00;5033957;28;20029;-68
2022/05/27 08:48:38;;;;;;;5.43;1.25;;;;;;;30.53;36.61;101836.16;5032596;28;20044;-67
2022/05/27 08:51:19;;;;;;;3.58;1.25;;;;;;;30.56;36.52;101841.22;5032500;28;20113;-66
2022/05/27 08:53:51;;;;;;;5.10;1.55;;;;;;;30.50;36.82;101836.63;5031274;28;20021;-66
2022/05/27 08:59:30;;;;;;;2.63;1.65;;;;;;;31.09;35.74;101840.38;5032189;28;20048;-65
2022/05/27 09:02:13;;;;;;;2.00;1.50;;;;;;;31.46;34.83;101850.13;5032373;28;20029;-66
2022/05/27 09:04:47;;;;;;;6.53;2.05;;;;;;;30.88;35.52;101838.13;5017236;28;20516;-65
2022/05/27 09:07:24;;;;;;;3.17;1.58;;;;;;;31.03;35.26;101841.31;5033411;28;20434;-67
2022/05/27 09:09:50;;;;;;;3.00;1.50;;;;;;;30.80;35.45;101833.78;5033234;28;20040;-66
2022/05/27 09:12:38;;;;;;;4.63;1.55;;;;;;;30.46;35.84;101843.69;5032064;28;20026;-66
2022/05/27 09:15:09;;;;;;;3.75;1.33;;;;;;;30.73;34.86;101846.06;5033160;28;20026;-66
2022/05/27 09:17:49;;;;;;;8.60;1.58;;;;;;;30.99;34.81;101838.16;5033111;28;20025;-66
2022/05/27 09:20:24;;;;;;;1.75;1.25;;;;;;;30.48;35.22;101833.25;5032022;28;20029;-66
2022/05/27 09:22:52;;;;;;;4.78;1.58;;;;;;;30.49;34.86;101843.22;5036369;28;20033;-66
2022/05/27 09:25:32;;;;;;;3.20;1.42;;;;;;;30.13;35.11;101842.44;5037031;28;20506;-66
2022/05/27 09:28:12;;;;;;;3.95;1.60;;;;;;;30.34;34.78;101848.31;5037276;28;20026;-66
2022/05/27 09:30:38;;;;;;;2.95;1.60;;;;;;;30.92;34.16;101839.34;5035824;28;20026;-66
2022/05/27 09:33:06;;;;;;;5.18;2.38;;;;;;;31.46;33.83;101836.25;5035572;28;20033;-67
2022/05/27 09:35:39;;;;;;;6.78;1.73;;;;;;;31.66;33.22;101833.09;5036858;28;20052;-66
2022/05/27 09:38:06;;;;;;;1.90;1.17;;;;;;;31.28;34.15;101843.84;5035381;28;20430;-66
2022/05/27 09:40:36;;;;;;;5.85;1.75;;;;;;;31.38;33.65;101831.06;5036564;28;20493;-66
2022/05/27 09:43:22;;;;;;;3.20;1.50;;;;;;;31.09;34.58;101823.75;5035245;28;20519;-66
2022/05/27 09:46:00;;;;;;;5.68;1.42;;;;;;;30.73;34.07;101840.53;5035957;28;20033;-66
2022/05/27 09:48:26;;;;;;;4.93;1.85;;;;;;;30.27;34.86;101836.50;5035616;28;20041;-66
2022/05/27 09:50:51;;;;;;;3.28;1.63;;;;;;;29.94;34.95;101841.63;5036604;28;20131;-66
2022/05/27 09:53:27;;;;;;;5.47;1.73;;;;;;;30.14;34.50;101836.69;5035170;28;20084;-65
2022/05/27 09:56:04;;;;;;;3.65;1.25;;;;;;;30.26;34.05;101834.84;5036866;28;20394;-66
2022/05/27 09:58:33;;;;;;;14.90;2.70;;;;;;;31.01;33.58;101832.41;5035135;28;20029;-66
2022/05/27 10:00:59;;;;;;;1.95;1.05;;;;;;;31.05;33.51;101836.38;5036717;28;20045;-65
2022/05/27 10:03:32;;;;;;;3.58;0.95;;;;;;;30.66;33.57;101851.69;5035021;28;20025;-64
2022/05/27 10:06:06;;;;;;;2.65;1.23;;;;;;;30.33;33.85;101846.63;5036827;28;20029;-66
2022/05/27 10:08:55;;;;;;;4.07;1.52;;;;;;;31.12;32.80;101846.28;5036601;28;20435;-65
2022/05/27 10:11:26;;;;;;;1.95;1.73;;;;;;;32.19;31.33;101849.53;5035618;28;20127;-66
2022/05/27 10:14:12;;;;;;;3.90;1.23;;;;;;;33.10;30.44;101851.19;5034692;28;20032;-65
2022/05/27 10:16:40;;;;;;;4.70;1.35;;;;;;;33.14;30.96;101838.50;5036182;28;20033;-66
2022/05/27 10:19:21;;;;;;;2.88;1.35;;;;;;;33.54;30.49;101844.66;5036235;28;20048;-67
2022/05/27 10:22:05;;;;;;;2.45;1.35;;;;;;;33.77;30.37;101841.66;5036096;28;20029;-66
2022/05/27 10:24:35;;;;;;;3.30;1.80;;;;;;;34.05;29.42;101848.13;5037109;28;20541;-66
2022/05/27 10:27:20;;;;;;;3.05;1.60;;;;;;;34.42;28.32;101846.34;5034828;28;20021;-66
2022/05/27 10:29:52;;;;;;;2.53;1.60;;;;;;;34.53;28.90;101853.69;5034723;28;20021;-66
2022/05/27 10:32:38;;;;;;;2.13;1.80;;;;;;;34.67;28.80;101841.06;5035864;28;20028;-66
2022/05/27 10:35:25;;;;;;;3.60;2.03;;;;;;;35.00;28.18;101826.00;5035783;28;20079;-66
2022/05/27 10:38:07;;;;;;;5.53;3.13;;;;;;;35.28;28.09;101831.25;5035945;28;20155;-66
2022/05/27 10:40:48;;;;;;;1.95;1.13;;;;;;;35.63;27.07;101825.06;5036198;28;20106;-66
2022/05/27 10:43:35;;;;;;;3.13;0.68;;;;;;;34.78;27.53;101833.63;5034758;28;20104;-66
2022/05/27 10:46:13;;;;;;;2.70;1.10;;;;;;;35.02;27.71;101837.72;5035718;28;20519;-65
2022/05/27 10:48:57;;;;;;;4.57;2.15;;;;;;;34.74;27.09;101832.47;5035778;28;20083;-66
2022/05/27 10:51:48;;;;;;;3.95;1.83;;;;;;;34.63;27.22;101839.91;5034430;28;20116;-66
2022/05/27 10:54:44;;;;;;;3.50;1.83;;;;;;;34.70;26.62;101832.19;5034759;28;20451;-66
2022/05/27 11:03:17;;;;;;;4.15;1.35;;;;;;;33.71;28.68;101851.03;5035484;28;20474;-66
2022/05/27 11:06:11;;;;;;;7.97;1.05;;;;;;;32.99;29.04;101852.94;5034921;28;20069;-66
2022/05/27 11:09:04;;;;;;;3.60;0.95;;;;;;;32.29;29.17;101858.03;5017505;28;20048;-66
2022/05/27 11:11:40;;;;;;;3.20;1.80;;;;;;;33.25;26.74;101846.72;5034720;28;20041;-66
2022/05/27 11:17:11;;;;;;;5.35;1.70;;;;;;;34.76;26.24;101833.06;5035292;28;20032;-67
2022/05/27 11:19:51;;;;;;;3.08;0.98;;;;;;;35.32;25.26;101839.91;5034880;28;20026;-65
2022/05/27 11:22:22;;;;;;;2.53;1.30;;;;;;;35.62;25.51;101837.34;5035324;28;20029;-66
2022/05/27 11:25:16;;;;;;;5.65;1.30;;;;;;;35.95;25.76;101836.94;5033731;28;20510;-66
2022/05/27 11:28:03;;;;;;;3.95;1.05;;;;;;;36.34;24.50;101837.34;5034352;28;20052;-67
2022/05/27 11:30:28;;;;;;;3.63;1.77;;;;;;;36.73;24.38;101837.69;5034174;28;20029;-67
2022/05/27 11:33:06;;;;;;;3.67;1.20;;;;;;;35.72;25.17;101840.16;5034696;28;20048;-66
2022/05/27 11:35:57;;;;;;;4.00;0.93;;;;;;;35.31;24.88;101838.25;5034927;28;20021;-66
2022/05/27 11:38:36;;;;;;;1.83;0.77;;;;;;;34.61;24.95;101857.97;5033737;28;20108;-66
2022/05/27 11:41:07;;;;;;;2.90;1.10;;;;;;;35.33;24.45;101849.94;5033399;28;20048;-66
2022/05/27 11:43:40;;;;;;;6.22;1.30;;;;;;;35.77;24.55;101842.97;5034549;28;20021;-66
2022/05/27 11:46:11;;;;;;;6.30;1.13;;;;;;;36.16;23.71;101840.63;5033222;28;20506;-65
2022/05/27 11:49:02;;;;;;;5.38;1.02;;;;;;;35.74;24.14;101842.66;5031679;28;20025;-65
2022/05/27 11:51:43;;;;;;;2.92;0.93;;;;;;;36.28;23.83;101837.59;5015292;28;20022;-66
2022/05/27 11:54:29;;;;;;;2.92;0.85;;;;;;;36.75;23.76;101843.84;5033104;28;20028;-66
2022/05/27 11:57:09;;;;;;;3.05;1.38;;;;;;;37.14;23.09;101842.16;5030299;28;20113;-66
2022/05/27 11:59:43;;;;;;;3.65;0.70;;;;;;;37.31;23.43;101831.53;5027211;28;20448;-66
2022/05/27 12:02:30;;;;;;;5.07;1.20;;;;;;;37.53;22.64;101838.75;5050715;28;20056;-66
2022/05/27 12:05:09;;;;;;;3.58;0.93;;;;;;;37.63;22.93;101845.19;5034794;28;20057;-66
2022/05/27 12:07:47;;;;;;;5.65;1.15;;;;;;;37.69;23.04;101846.81;5050925;28;20452;-66